createdAt,value
2022-08-17T00:01:52.543Z,88.60
2022-08-17T00:04:26.929Z,90.60
2022-08-17T00:06:57.779Z,89.30
2022-08-17T00:09:28.831Z,88.90
2022-08-17T00:12:42.111Z,88.80
2022-08-17T00:14:50.742Z,89.10
2022-08-17T00:17:21.721Z,89.10
2022-08-17T00:19:55.406Z,89.50
2022-08-17T00:22:33.777Z,89.20
2022-08-17T00:25:09.046Z,89.50
2022-08-17T00:27:39.912Z,89.30
2022-08-17T00:30:12.511Z,89.70
2022-08-17T00:33:14.003Z,89.50
2022-08-17T00:35:38.093Z,89.60
2022-08-17T00:38:10.078Z,90.00
2022-08-17T00:40:44.548Z,90.00
2022-08-17T00:43:17.301Z,89.90
2022-08-17T00:45:48.751Z,90.00
2022-08-17T00:48:29.485Z,90.00
2022-08-17T00:51:06.605Z,89.90
2022-08-17T00:53:39.385Z,90.10
2022-08-17T00:56:12.348Z,90.10
2022-08-17T00:58:43.313Z,90.00
2022-08-17T01:01:21.842Z,90.60
2022-08-17T01:03:58.030Z,90.60
2022-08-17T01:06:34.586Z,90.60
2022-08-17T01:09:06.402Z,90.40
2022-08-17T01:11:39.664Z,90.30
2022-08-17T01:14:10.744Z,90.20
2022-08-17T01:16:42.173Z,90.30
2022-08-17T01:19:17.781Z,90.50
2022-08-17T01:21:54.030Z,90.20
2022-08-17T01:24:27.521Z,90.60
2022-08-17T01:26:58.622Z,90.50
2022-08-17T01:29:30.998Z,90.40
2022-08-17T01:32:03.938Z,91.10
2022-08-17T01:34:43.660Z,91.20
2022-08-17T01:37:21.948Z,91.10
2022-08-17T01:39:57.592Z,91.10
2022-08-17T01:42:33.581Z,90.90
2022-08-17T01:45:06.846Z,90.60
2022-08-17T01:47:38.502Z,90.70
2022-08-17T01:50:11.871Z,90.90
2022-08-17T01:52:43.266Z,90.80
2022-08-17T01:55:18.848Z,90.60
2022-08-17T01:57:50.298Z,91.00
2022-08-17T02:00:21.197Z,91.00
2022-08-17T02:02:52.530Z,90.80
2022-08-17T02:05:23.499Z,90.80
2022-08-17T02:08:00.395Z,91.50
2022-08-17T02:10:34.902Z,90.90
2022-08-17T02:13:07.190Z,91.00
2022-08-17T02:15:38.281Z,91.10
2022-08-17T02:18:10.001Z,91.00
2022-08-17T02:20:42.624Z,91.70
2022-08-17T02:23:14.584Z,91.30
2022-08-17T02:25:48.767Z,91.70
2022-08-17T02:28:20.968Z,91.70
2022-08-17T02:31:02.605Z,91.80
2022-08-17T02:33:42.019Z,91.90
2022-08-17T02:36:15.648Z,91.70
2022-08-17T02:38:46.649Z,91.30
2022-08-17T02:41:20.178Z,91.60
2022-08-17T02:43:51.323Z,91.40
2022-08-17T02:46:22.743Z,91.60
2022-08-17T02:48:53.856Z,91.90
2022-08-17T02:51:25.062Z,91.60
2022-08-17T02:54:02.068Z,91.50
2022-08-17T02:56:49.687Z,92.20
2022-08-17T02:59:21.305Z,91.70
2022-08-17T03:01:52.638Z,91.80
2022-08-17T03:04:23.828Z,91.60
2022-08-17T03:06:54.521Z,91.70
2022-08-17T03:09:25.660Z,92.40
2022-08-17T03:12:06.128Z,91.90
2022-08-17T03:14:41.484Z,91.80
2022-08-17T03:17:17.461Z,91.70
2022-08-17T03:19:48.704Z,91.80
2022-08-17T03:22:34.696Z,92.40
2022-08-17T03:25:10.645Z,92.40
2022-08-17T03:27:44.247Z,92.40
2022-08-17T03:30:19.521Z,91.90
2022-08-17T03:32:53.060Z,92.20
2022-08-17T03:35:25.703Z,92.40
2022-08-17T03:38:00.109Z,92.50
2022-08-17T03:40:55.703Z,92.50
2022-08-17T03:43:25.623Z,92.50
2022-08-17T03:46:19.274Z,93.00
2022-08-17T03:49:10.618Z,92.10
2022-08-17T03:51:54.133Z,92.60
2022-08-17T03:54:37.246Z,92.50
2022-08-17T03:57:09.311Z,92.70
2022-08-17T03:59:43.198Z,92.60
2022-08-17T04:02:18.523Z,93.30
2022-08-17T04:04:51.088Z,92.90
2022-08-17T04:07:22.954Z,92.50
2022-08-17T04:09:54.150Z,92.60
2022-08-17T04:12:25.909Z,92.60
2022-08-17T04:14:59.592Z,92.70
2022-08-17T04:17:31.788Z,92.50
2022-08-17T04:20:02.624Z,92.40
2022-08-17T04:22:34.464Z,92.60
2022-08-17T04:25:07.455Z,93.30
2022-08-17T04:27:38.947Z,92.70
2022-08-17T04:30:13.562Z,93.50
2022-08-17T04:33:05.320Z,93.40
2022-08-17T04:35:39.535Z,93.30
2022-08-17T04:38:11.554Z,93.10
2022-08-17T04:40:54.954Z,92.90
2022-08-17T04:43:27.373Z,93.40
2022-08-17T04:46:02.597Z,93.90
2022-08-17T04:48:36.234Z,93.50
2022-08-17T04:51:10.476Z,94.00
2022-08-17T04:53:42.282Z,94.20
2022-08-17T04:56:16.155Z,93.40
2022-08-17T04:58:49.890Z,93.80
2022-08-17T05:01:24.914Z,93.80
2022-08-17T05:03:57.064Z,94.70
2022-08-17T05:06:28.008Z,99.70
2022-08-17T05:08:59.200Z,96.10
2022-08-17T05:11:30.235Z,95.60
2022-08-17T05:14:01.720Z,96.60
2022-08-17T05:16:37.565Z,96.00
2022-08-17T05:19:08.687Z,94.00
2022-08-17T05:21:39.482Z,94.50
2022-08-17T05:24:38.734Z,99.40
2022-08-17T05:27:06.229Z,96.40
2022-08-17T05:29:37.845Z,97.40
2022-08-17T05:32:38.033Z,96.30
2022-08-17T05:35:05.627Z,98.80
2022-08-17T05:37:36.435Z,97.90
2022-08-17T05:40:08.458Z,94.10
2022-08-17T05:42:39.381Z,94.10
2022-08-17T05:45:11.705Z,93.70
2022-08-17T05:47:45.964Z,93.50
2022-08-17T05:50:25.749Z,93.60
2022-08-17T05:53:02.431Z,93.50
2022-08-17T05:55:37.953Z,93.40
2022-08-17T05:58:16.365Z,93.80
2022-08-17T06:00:51.061Z,93.60
2022-08-17T06:03:30.269Z,93.50
2022-08-17T06:06:04.945Z,93.30
2022-08-17T06:08:39.719Z,93.00
2022-08-17T06:11:17.133Z,92.80
2022-08-17T06:14:01.148Z,92.30
2022-08-17T06:16:35.653Z,92.20
2022-08-17T06:19:14.533Z,92.10
2022-08-17T06:21:46.217Z,91.90
2022-08-17T06:24:27.576Z,91.80
2022-08-17T06:27:00.449Z,91.90
2022-08-17T06:29:37.373Z,91.50
2022-08-17T06:32:12.170Z,91.10
2022-08-17T06:34:48.215Z,91.50
2022-08-17T06:37:30.357Z,91.30
2022-08-17T06:40:06.177Z,91.10
2022-08-17T06:43:02.293Z,91.10
2022-08-17T06:45:34.088Z,91.00
2022-08-17T06:48:07.651Z,91.00
2022-08-17T06:50:42.614Z,90.90
2022-08-17T06:53:17.845Z,90.70
2022-08-17T06:55:51.256Z,90.60
2022-08-17T06:58:23.914Z,90.50
2022-08-17T07:01:02.268Z,90.40
2022-08-17T07:03:38.149Z,90.80
2022-08-17T07:06:15.474Z,90.60
2022-08-17T07:08:55.678Z,90.50
2022-08-17T07:11:29.136Z,90.10
2022-08-17T07:14:06.314Z,90.30
2022-08-17T07:16:39.355Z,90.90
2022-08-17T07:19:11.345Z,90.10
2022-08-17T07:21:49.872Z,90.40
2022-08-17T07:24:30.101Z,90.20
2022-08-17T07:27:09.471Z,90.30
2022-08-17T07:29:42.145Z,89.40
2022-08-17T07:32:14.407Z,89.70
2022-08-17T07:35:00.423Z,89.40
2022-08-17T07:37:34.593Z,89.70
2022-08-17T07:40:17.504Z,89.40
2022-08-17T07:43:04.955Z,89.70
2022-08-17T07:45:49.337Z,89.00
2022-08-17T07:48:22.495Z,88.20
2022-08-17T07:50:54.960Z,88.00
2022-08-17T07:53:29.038Z,88.20
2022-08-17T07:56:00.619Z,87.60
2022-08-17T07:58:31.427Z,87.20
2022-08-17T08:01:08.533Z,87.90
2022-08-17T08:03:44.120Z,86.90
2022-08-17T08:06:21.827Z,87.40
2022-08-17T08:09:00.666Z,86.70
2022-08-17T08:11:33.023Z,86.00
2022-08-17T08:14:18.611Z,86.10
2022-08-17T08:16:59.293Z,86.40
2022-08-17T08:19:30.698Z,85.90
2022-08-17T08:22:06.993Z,85.40
2022-08-17T08:24:55.460Z,84.60
2022-08-17T08:27:32.964Z,85.00
2022-08-17T08:30:07.307Z,85.20
2022-08-17T08:32:50.393Z,85.50
2022-08-17T08:35:27.030Z,84.40
2022-08-17T08:38:03.147Z,84.90
2022-08-17T08:40:41.970Z,85.10
2022-08-17T08:43:19.608Z,85.10
2022-08-17T08:45:56.797Z,85.10
2022-08-17T08:48:55.804Z,84.90
2022-08-17T08:51:36.774Z,86.00
2022-08-17T08:54:15.835Z,85.90
2022-08-17T08:57:19.794Z,85.30
2022-08-17T08:59:57.617Z,86.60
2022-08-17T09:02:37.618Z,86.60
2022-08-17T09:05:16.441Z,86.20
2022-08-17T09:07:50.893Z,86.30
2022-08-17T09:10:29.654Z,85.70
2022-08-17T09:13:10.089Z,87.10
2022-08-17T09:15:43.443Z,87.40
2022-08-17T09:19:02.468Z,86.40
2022-08-17T09:21:14.973Z,86.40
2022-08-17T09:23:59.456Z,87.20
2022-08-17T09:26:32.768Z,86.80
2022-08-17T09:29:08.867Z,86.20
2022-08-17T09:31:48.747Z,86.90
2022-08-17T09:34:22.064Z,87.20
2022-08-17T09:37:04.066Z,87.50
2022-08-17T09:39:37.557Z,86.70
2022-08-17T09:42:10.682Z,86.80
2022-08-17T09:44:47.081Z,86.60
2022-08-17T09:47:20.556Z,87.40
2022-08-17T09:49:53.384Z,86.20
2022-08-17T09:52:26.149Z,86.10
2022-08-17T09:54:58.741Z,86.10
2022-08-17T09:57:40.415Z,86.40
2022-08-17T10:00:19.060Z,85.30
2022-08-17T10:03:04.979Z,85.00
2022-08-17T10:05:39.852Z,86.20
2022-08-17T10:08:17.204Z,86.70
2022-08-17T10:10:59.087Z,86.20
2022-08-17T10:13:38.902Z,85.10
2022-08-17T10:16:17.611Z,85.60
2022-08-17T10:18:53.266Z,83.90
2022-08-17T10:21:37.081Z,83.70
2022-08-17T10:24:34.541Z,85.40
2022-08-17T10:27:07.710Z,84.10
2022-08-17T10:29:47.345Z,85.10
2022-08-17T10:32:28.658Z,82.80
2022-08-17T10:35:04.445Z,84.80
2022-08-17T10:37:46.719Z,83.60
2022-08-17T10:40:26.517Z,84.30
2022-08-17T10:43:00.881Z,84.60
2022-08-17T10:45:34.706Z,83.70
2022-08-17T10:48:24.185Z,83.60
2022-08-17T10:51:03.011Z,82.40
2022-08-17T10:53:49.533Z,82.90
2022-08-17T10:56:21.978Z,81.90
2022-08-17T10:58:55.502Z,82.40
2022-08-17T11:01:58.508Z,82.00
2022-08-17T11:04:39.365Z,82.90
2022-08-17T11:07:16.108Z,80.60
2022-08-17T11:09:55.387Z,80.90
2022-08-17T11:12:31.531Z,80.90
2022-08-17T11:15:14.275Z,80.10
2022-08-17T11:18:06.497Z,80.50
2022-08-17T11:20:52.109Z,79.60
2022-08-17T11:23:38.148Z,79.30
2022-08-17T11:26:26.167Z,78.40
2022-08-17T11:28:59.814Z,78.50
2022-08-17T11:32:01.828Z,78.00
2022-08-17T11:34:33.802Z,77.70
2022-08-17T11:37:19.740Z,77.50
2022-08-17T11:40:06.149Z,77.30
2022-08-17T11:42:47.443Z,77.60
2022-08-17T11:45:32.165Z,77.50
2022-08-17T11:48:28.683Z,77.40
2022-08-17T11:51:15.590Z,76.90
2022-08-17T11:54:30.613Z,76.90
2022-08-17T11:56:53.043Z,77.00
2022-08-17T11:59:42.246Z,76.50
2022-08-17T12:02:31.598Z,76.60
2022-08-17T12:05:12.810Z,76.40
2022-08-17T12:07:46.049Z,76.20
2022-08-17T12:10:18.747Z,76.00
2022-08-17T12:12:52.058Z,75.60
2022-08-17T12:15:28.722Z,75.80
2022-08-17T12:18:00.374Z,75.50
2022-08-17T12:20:35.789Z,75.20
2022-08-17T12:23:10.889Z,75.00
2022-08-17T12:25:44.769Z,75.20
2022-08-17T12:28:23.946Z,74.60
2022-08-17T12:30:55.563Z,75.30
2022-08-17T12:33:29.045Z,74.80
2022-08-17T12:36:03.831Z,74.30
2022-08-17T12:38:36.351Z,74.80
2022-08-17T12:41:20.965Z,75.20
2022-08-17T12:43:58.879Z,73.80
2022-08-17T12:46:29.778Z,72.90
2022-08-17T12:49:16.147Z,73.60
2022-08-17T12:51:50.681Z,73.30
2022-08-17T12:54:34.388Z,73.00
2022-08-17T12:57:08.892Z,73.80
2022-08-17T12:59:42.906Z,73.80
2022-08-17T13:02:22.631Z,73.30
2022-08-17T13:04:55.092Z,72.80
2022-08-17T13:07:36.353Z,72.50
2022-08-17T13:10:08.077Z,72.10
2022-08-17T13:12:39.125Z,72.40
2022-08-17T13:15:10.916Z,70.60
2022-08-17T13:17:41.785Z,73.20
2022-08-17T13:20:17.697Z,73.00
2022-08-17T13:22:59.911Z,72.60
2022-08-17T13:25:32.561Z,72.10
2022-08-17T13:28:03.373Z,72.70
2022-08-17T13:30:35.731Z,72.50
2022-08-17T13:33:34.889Z,72.20
2022-08-17T13:36:19.320Z,72.30
2022-08-17T13:39:08.564Z,73.00
2022-08-17T13:41:40.493Z,71.90
2022-08-17T13:44:27.259Z,72.10
2022-08-17T13:46:59.835Z,72.20
2022-08-17T13:49:41.527Z,72.50
2022-08-17T13:52:33.749Z,72.30
2022-08-17T13:55:09.083Z,72.20
2022-08-17T13:57:40.475Z,72.60
2022-08-17T14:00:13.731Z,72.30
2022-08-17T14:02:45.118Z,72.00
2022-08-17T14:05:16.125Z,71.80
2022-08-17T14:07:47.395Z,72.00
2022-08-17T14:10:21.219Z,71.70
2022-08-17T14:12:52.991Z,71.40
2022-08-17T14:15:54.738Z,71.60
2022-08-17T14:18:56.113Z,71.30
2022-08-17T14:21:11.622Z,71.50
2022-08-17T14:23:49.094Z,71.10
2022-08-17T14:26:28.126Z,71.10
2022-08-17T14:28:59.263Z,70.90
2022-08-17T14:31:37.459Z,71.70
2022-08-17T14:34:11.068Z,71.40
2022-08-17T14:36:48.202Z,70.90
2022-08-17T14:39:20.272Z,71.00
2022-08-17T14:41:55.734Z,71.60
2022-08-17T14:44:26.923Z,71.40
2022-08-17T14:46:57.842Z,71.10
2022-08-17T14:49:30.495Z,71.40
2022-08-17T14:52:01.766Z,71.80
2022-08-17T14:54:34.629Z,72.10
2022-08-17T14:57:33.347Z,71.60
2022-08-17T15:00:05.846Z,71.50
2022-08-17T15:02:45.672Z,71.40
2022-08-17T15:05:19.340Z,71.40
2022-08-17T15:07:50.592Z,72.60
2022-08-17T15:10:25.599Z,71.30
2022-08-17T15:13:00.607Z,71.30
2022-08-17T15:15:32.451Z,71.00
2022-08-17T15:18:03.670Z,71.10
2022-08-17T15:20:35.852Z,70.50
2022-08-17T15:23:07.245Z,71.10
2022-08-17T15:25:38.557Z,70.60
2022-08-17T15:28:12.192Z,70.70
2022-08-17T15:30:45.102Z,70.70
2022-08-17T15:33:17.698Z,71.20
2022-08-17T15:35:52.245Z,71.00
2022-08-17T15:38:23.627Z,71.10
2022-08-17T15:40:55.525Z,71.10
2022-08-17T15:43:32.661Z,70.90
2022-08-17T15:46:05.008Z,71.60
2022-08-17T15:48:45.578Z,70.50
2022-08-17T15:51:18.138Z,71.40
2022-08-17T15:53:50.172Z,70.70
2022-08-17T15:56:21.489Z,71.10
2022-08-17T15:58:55.337Z,71.00
2022-08-17T16:03:01.723Z,70.90
2022-08-17T16:04:26.958Z,70.00
2022-08-17T16:07:02.652Z,68.90
2022-08-17T16:09:33.526Z,68.20
2022-08-17T16:12:13.445Z,67.60
2022-08-17T16:14:47.064Z,67.60
2022-08-17T16:17:39.040Z,66.90
2022-08-17T16:20:09.618Z,67.60
2022-08-17T16:22:52.713Z,67.50
2022-08-17T16:25:52.551Z,68.40
2022-08-17T16:28:19.931Z,68.80
2022-08-17T16:30:53.369Z,68.40
2022-08-17T16:33:24.556Z,68.90
2022-08-17T16:35:57.043Z,68.50
2022-08-17T16:38:30.883Z,68.40
2022-08-17T16:41:01.976Z,68.50
2022-08-17T16:43:33.297Z,68.00
2022-08-17T16:46:06.849Z,67.10
2022-08-17T16:48:38.219Z,66.50
2022-08-17T16:51:09.229Z,66.50
2022-08-17T16:53:44.422Z,68.00
2022-08-17T16:56:19.344Z,67.60
2022-08-17T16:58:50.914Z,67.60
2022-08-17T17:01:24.747Z,67.70
2022-08-17T17:03:58.350Z,68.10
2022-08-17T17:06:35.360Z,68.50
2022-08-17T17:09:08.944Z,68.40
2022-08-17T17:11:42.719Z,68.30
2022-08-17T17:14:16.937Z,68.80
2022-08-17T17:16:54.205Z,68.20
2022-08-17T17:19:35.388Z,68.00
2022-08-17T17:22:10.646Z,67.50
2022-08-17T17:24:49.985Z,67.20
2022-08-17T17:27:30.471Z,67.10
2022-08-17T17:30:10.857Z,67.10
2022-08-17T17:32:48.394Z,67.90
2022-08-17T17:35:21.133Z,68.00
2022-08-17T17:37:53.433Z,67.30
2022-08-17T17:40:26.030Z,67.40
2022-08-17T17:43:05.598Z,67.90
2022-08-17T17:45:53.139Z,68.60
2022-08-17T17:48:26.797Z,69.20
2022-08-17T17:51:03.916Z,69.20
2022-08-17T17:53:43.050Z,69.60
2022-08-17T17:56:39.886Z,69.80
2022-08-17T17:59:18.156Z,69.70
2022-08-17T18:01:52.050Z,70.40
2022-08-17T18:04:30.565Z,70.30
2022-08-17T18:07:11.292Z,70.70
2022-08-17T18:09:51.950Z,70.70
2022-08-17T18:12:28.096Z,71.20
2022-08-17T18:15:04.352Z,71.10
2022-08-17T18:17:36.535Z,70.70
2022-08-17T18:20:10.411Z,71.60
2022-08-17T18:22:41.584Z,71.60
2022-08-17T18:25:34.120Z,71.70
2022-08-17T18:28:05.253Z,72.00
2022-08-17T18:30:36.084Z,72.60
2022-08-17T18:33:22.311Z,73.10
2022-08-17T18:35:58.773Z,73.00
2022-08-17T18:38:33.999Z,73.10
2022-08-17T18:41:06.526Z,73.20
2022-08-17T18:43:44.417Z,73.00
2022-08-17T18:46:30.160Z,73.90
2022-08-17T18:49:02.149Z,74.00
2022-08-17T18:51:42.194Z,74.00
2022-08-17T18:54:17.188Z,74.50
2022-08-17T18:56:52.047Z,74.30
2022-08-17T18:59:30.781Z,74.90
2022-08-17T19:02:27.303Z,75.40
2022-08-17T19:05:10.034Z,75.20
2022-08-17T19:07:45.350Z,75.20
2022-08-17T19:10:21.400Z,75.10
2022-08-17T19:12:55.507Z,76.20
2022-08-17T19:15:36.080Z,75.70
2022-08-17T19:18:15.275Z,75.30
2022-08-17T19:20:48.619Z,76.20
2022-08-17T19:23:25.458Z,75.60
2022-08-17T19:25:58.604Z,76.10
2022-08-17T19:28:31.381Z,76.90
2022-08-17T19:31:11.584Z,76.50
2022-08-17T19:33:42.497Z,76.90
2022-08-17T19:36:27.286Z,78.10
2022-08-17T19:39:04.712Z,77.70
2022-08-17T19:41:43.012Z,76.80
2022-08-17T19:44:35.151Z,77.70
2022-08-17T19:47:10.500Z,78.40
2022-08-17T19:49:47.418Z,77.40
2022-08-17T19:52:32.771Z,77.60
2022-08-17T19:55:08.517Z,78.00
2022-08-17T19:57:44.670Z,77.70
2022-08-17T20:00:17.679Z,78.10
2022-08-17T20:02:52.719Z,77.80
2022-08-17T20:05:25.137Z,77.50
2022-08-17T20:07:59.582Z,77.80
2022-08-17T20:10:37.413Z,77.40
2022-08-17T20:13:13.314Z,77.80
2022-08-17T20:15:45.280Z,77.50
2022-08-17T20:18:22.515Z,77.50
2022-08-17T20:20:58.690Z,77.50
2022-08-17T20:23:38.722Z,77.40
2022-08-17T20:26:19.238Z,78.90
2022-08-17T20:29:06.731Z,78.80
2022-08-17T20:31:45.674Z,78.20
2022-08-17T20:34:37.039Z,78.30
2022-08-17T20:37:10.090Z,78.10
2022-08-17T20:39:42.740Z,77.70
2022-08-17T20:42:33.790Z,78.30
2022-08-17T20:45:26.497Z,78.30
2022-08-17T20:50:54.483Z,79.20
2022-08-17T20:53:40.386Z,79.30
2022-08-17T20:56:11.981Z,78.80
2022-08-17T20:58:49.199Z,78.60
2022-08-17T21:01:26.456Z,78.70
2022-08-17T21:03:57.586Z,79.00
2022-08-17T21:06:28.965Z,79.00
2022-08-17T21:09:01.347Z,79.20
2022-08-17T21:12:03.306Z,79.00
2022-08-17T21:14:58.217Z,78.00
2022-08-17T21:17:42.924Z,78.50
2022-08-17T21:20:26.592Z,79.10
2022-08-17T21:23:16.503Z,78.60
2022-08-17T21:25:55.650Z,79.00
2022-08-17T21:28:33.806Z,79.60
2022-08-17T21:31:09.966Z,78.70
2022-08-17T21:33:41.721Z,78.30
2022-08-17T21:36:26.567Z,78.40
2022-08-17T21:39:04.693Z,79.00
2022-08-17T21:41:36.928Z,78.60
2022-08-17T21:44:13.987Z,78.70
2022-08-17T21:46:49.598Z,78.50
2022-08-17T21:49:21.493Z,80.00
2022-08-17T21:51:56.680Z,78.30
2022-08-17T21:54:32.729Z,78.40
2022-08-17T21:57:04.801Z,78.70
2022-08-17T21:59:37.214Z,79.30
2022-08-17T22:02:12.172Z,79.10
2022-08-17T22:04:44.483Z,80.30
2022-08-17T22:07:16.401Z,79.50
2022-08-17T22:09:48.741Z,79.80
2022-08-17T22:12:20.463Z,81.00
2022-08-17T22:15:00.589Z,79.40
2022-08-17T22:17:36.727Z,79.50
2022-08-17T22:20:09.639Z,79.50
2022-08-17T22:23:02.729Z,79.90
2022-08-17T22:25:32.031Z,81.50
2022-08-17T22:28:04.524Z,79.80
2022-08-17T22:30:37.195Z,81.40
2022-08-17T22:33:22.887Z,80.10
2022-08-17T22:36:11.873Z,80.10
2022-08-17T22:38:43.575Z,79.90
2022-08-17T22:41:32.190Z,81.60
2022-08-17T22:44:09.178Z,82.20
2022-08-17T22:46:42.359Z,83.50
2022-08-17T22:49:13.293Z,83.80
2022-08-17T22:51:47.005Z,84.50
2022-08-17T22:54:32.294Z,84.20
2022-08-17T22:57:19.192Z,84.00
2022-08-17T22:59:51.080Z,83.70
2022-08-17T23:02:24.251Z,82.00
2022-08-17T23:04:57.622Z,81.70
2022-08-17T23:07:31.380Z,81.60
2022-08-17T23:10:02.437Z,81.50
2022-08-17T23:12:33.537Z,81.40
2022-08-17T23:15:05.035Z,82.50
2022-08-17T23:17:37.577Z,81.90
2022-08-17T23:20:12.220Z,81.70
2022-08-17T23:22:51.736Z,81.60
2022-08-17T23:25:28.141Z,81.90
2022-08-17T23:28:01.886Z,82.20
2022-08-17T23:30:33.106Z,83.70
2022-08-17T23:33:06.922Z,82.50
2022-08-17T23:35:40.508Z,82.20
2022-08-17T23:38:15.690Z,82.30
2022-08-17T23:40:46.782Z,82.20
2022-08-17T23:43:25.700Z,83.00
2022-08-17T23:45:59.827Z,83.90
2022-08-17T23:48:36.564Z,83.40
2022-08-17T23:51:09.378Z,82.90
2022-08-17T23:53:46.385Z,82.50
2022-08-17T23:56:22.949Z,84.00
2022-08-17T23:58:54.945Z,83.30
